Time;durP1;ratioP1;P1;durP2;ratioP2;P2;SDS_P1;SDS_P2;PMS_P1;PMS_P2;Temp;Humidity;BMP_temperature;BMP_pressure;BME280_temperature;BME280_humidity;BME280_pressure;Samples;Min_cycle;Max_cycle;Signal;HPM_P1;HPM_P2
2022/06/13 00:01:37;;;;;;;13.45;4.53;;;16.50;75.70;;;;;;5047867;28;20025;-74
2022/06/13 00:04:04;;;;;;;11.18;4.70;;;16.50;75.70;;;;;;5047809;28;20055;-75
2022/06/13 00:06:29;;;;;;;12.18;5.00;;;16.40;75.50;;;;;;5047995;28;20021;-74
2022/06/13 00:08:55;;;;;;;14.52;4.10;;;16.40;75.50;;;;;;5046397;28;20033;-74
2022/06/13 00:11:23;;;;;;;15.25;5.18;;;16.40;75.60;;;;;;5046720;28;20073;-74
2022/06/13 00:13:53;;;;;;;9.18;4.32;;;16.30;75.70;;;;;;5049855;28;20032;-74
2022/06/13 00:16:19;;;;;;;17.55;5.38;;;16.30;75.70;;;;;;5051486;28;20021;-74
2022/06/13 00:18:47;;;;;;;14.90;5.30;;;16.30;75.80;;;;;;5050500;28;20064;-74
2022/06/13 00:21:34;;;;;;;12.32;4.93;;;16.30;76.20;;;;;;5051708;28;20024;-74
2022/06/13 00:24:01;;;;;;;21.77;6.05;;;16.30;76.40;;;;;;5051320;28;20029;-74
2022/06/13 00:26:29;;;;;;;12.13;4.82;;;16.20;76.20;;;;;;5051948;28;20025;-74
2022/06/13 00:28:56;;;;;;;13.25;5.05;;;16.20;76.40;;;;;;5033708;28;20021;-73
2022/06/13 00:31:22;;;;;;;15.50;5.35;;;16.10;76.60;;;;;;5051341;28;20638;-73
2022/06/13 00:33:48;;;;;;;14.15;5.05;;;16.10;76.70;;;;;;5051284;28;20021;-73
2022/06/13 00:36:14;;;;;;;17.70;6.10;;;16.10;76.60;;;;;;5051576;28;20063;-73
2022/06/13 00:38:39;;;;;;;16.13;6.05;;;16.10;76.80;;;;;;5051430;28;20029;-73
2022/06/13 00:41:09;;;;;;;15.95;4.93;;;16.10;76.90;;;;;;5050061;28;20039;-72
2022/06/13 00:43:38;;;;;;;12.45;4.90;;;16.10;77.00;;;;;;5051331;28;20484;-74
2022/06/13 00:46:20;;;;;;;15.90;6.22;;;16.10;77.10;;;;;;5050989;28;20499;-74
2022/06/13 00:48:46;;;;;;;14.48;5.47;;;16.00;77.40;;;;;;5049728;28;20103;-74
2022/06/13 00:51:12;;;;;;;16.98;6.05;;;16.00;77.70;;;;;;5049661;28;20025;-75
2022/06/13 00:53:38;;;;;;;10.68;4.75;;;16.00;78.00;;;;;;5050055;28;20025;-72
2022/06/13 00:56:14;;;;;;;13.68;5.00;;;16.00;78.40;;;;;;5051090;28;20467;-73
2022/06/13 00:58:48;;;;;;;13.43;5.38;;;16.00;78.60;;;;;;5050773;28;20542;-73
2022/06/13 01:01:15;;;;;;;12.30;5.30;;;16.00;78.50;;;;;;5049605;28;20025;-74
2022/06/13 01:03:43;;;;;;;14.13;5.53;;;16.00;78.60;;;;;;5050624;28;20024;-74
2022/06/13 01:06:09;;;;;;;16.73;5.78;;;16.00;79.00;;;;;;5050514;28;20025;-75
2022/06/13 01:08:37;;;;;;;15.73;5.28;;;16.00;79.40;;;;;;5050884;28;20021;-75
2022/06/13 01:11:19;;;;;;;11.85;5.20;;;16.00;79.50;;;;;;5050863;28;20032;-74
2022/06/13 01:14:02;;;;;;;10.75;5.10;;;16.00;79.80;;;;;;5051119;28;20017;-75
2022/06/13 01:16:58;;;;;;;16.33;4.82;;;16.10;79.90;;;;;;5050611;28;20544;-75
2022/06/13 01:19:56;;;;;;;19.30;5.90;;;16.10;79.90;;;;;;5050129;28;20041;-74
2022/06/13 01:22:37;;;;;;;16.15;5.20;;;16.10;80.10;;;;;;5049472;28;20025;-75
2022/06/13 01:25:22;;;;;;;14.77;5.38;;;16.10;80.20;;;;;;5049417;28;20029;-75
2022/06/13 01:28:17;;;;;;;15.65;6.32;;;16.20;80.20;;;;;;5039560;28;20052;-74
2022/06/13 01:31:03;;;;;;;16.90;5.68;;;16.20;80.40;;;;;;5011617;28;20139;-74
2022/06/13 01:33:52;;;;;;;15.70;6.35;;;16.20;80.50;;;;;;5048338;28;20029;-74
2022/06/13 01:36:46;;;;;;;13.77;5.90;;;16.30;80.60;;;;;;5049642;28;20441;-74
2022/06/13 01:39:15;;;;;;;15.40;5.78;;;16.30;80.50;;;;;;5049762;28;20044;-74
2022/06/13 01:42:07;;;;;;;21.35;6.53;;;16.30;80.40;;;;;;5049604;28;20029;-74
2022/06/13 01:44:44;;;;;;;13.52;5.55;;;16.40;80.50;;;;;;5030026;28;20151;-74
2022/06/13 01:47:13;;;;;;;16.80;5.80;;;16.40;80.30;;;;;;5045621;28;20033;-74
2022/06/13 01:49:57;;;;;;;15.57;5.43;;;16.40;80.30;;;;;;5049951;28;20055;-75
2022/06/13 01:52:53;;;;;;;17.20;5.68;;;16.40;80.30;;;;;;5049296;28;20025;-75
2022/06/13 01:55:24;;;;;;;18.70;6.13;;;16.40;80.20;;;;;;5029850;28;20021;-75
2022/06/13 01:58:12;;;;;;;14.88;6.75;;;16.50;80.10;;;;;;5048276;28;20029;-73
2022/06/13 02:00:39;;;;;;;18.33;7.30;;;16.50;80.00;;;;;;5038890;28;20491;-73
2022/06/13 02:03:29;;;;;;;14.48;5.32;;;16.50;80.00;;;;;;5048846;28;20040;-73
2022/06/13 02:06:09;;;;;;;17.52;6.85;;;16.60;79.90;;;;;;5047865;28;20017;-75
2022/06/13 02:08:35;;;;;;;;;;;16.60;79.80;;;;;;5046637;28;20364;-75
2022/06/13 02:11:09;;;;;;;16.73;6.57;;;16.60;79.60;;;;;;5049668;28;19951;-75
2022/06/13 02:13:38;;;;;;;16.33;7.20;;;16.60;79.50;;;;;;5064078;28;20025;-75
2022/06/13 02:16:15;;;;;;;16.80;7.17;;;16.50;79.50;;;;;;5047732;28;20024;-75
2022/06/13 02:19:11;;;;;;;21.85;7.40;;;16.60;79.60;;;;;;5048859;28;20021;-74
2022/06/13 02:21:44;;;;;;;17.77;6.85;;;16.60;79.50;;;;;;5042436;28;20067;-75
2022/06/13 02:24:23;;;;;;;20.35;7.30;;;16.60;79.50;;;;;;5035741;28;20556;-75
2022/06/13 02:26:52;;;;;;;10.95;5.32;;;16.60;79.20;;;;;;5049453;28;20020;-76
2022/06/13 02:29:22;;;;;;;17.73;7.53;;;16.60;79.10;;;;;;5046062;28;20025;-76
2022/06/13 02:31:59;;;;;;;16.27;7.22;;;16.60;79.30;;;;;;5048712;28;20028;-75
2022/06/13 02:34:37;;;;;;;14.65;6.55;;;16.60;79.20;;;;;;5047244;28;21341;-75
2022/06/13 02:37:09;;;;;;;16.33;7.28;;;16.70;79.10;;;;;;5048039;28;20816;-75
2022/06/13 02:40:10;;;;;;;20.70;7.20;;;16.70;79.10;;;;;;5047365;28;20127;-75
2022/06/13 02:42:47;;;;;;;13.40;7.18;;;16.70;78.90;;;;;;5048043;28;20013;-75
2022/06/13 02:45:42;;;;;;;14.82;7.63;;;16.60;78.70;;;;;;5038409;28;20017;-73
2022/06/13 02:48:30;;;;;;;18.88;7.57;;;16.60;79.00;;;;;;5046955;28;20561;-73
2022/06/13 02:51:23;;;;;;;17.83;8.38;;;16.60;79.00;;;;;;5049040;28;20029;-75
2022/06/13 02:54:03;;;;;;;21.10;8.18;;;16.60;79.20;;;;;;5048090;28;20680;-74
2022/06/13 02:59:50;;;;;;;17.90;7.18;;;16.60;79.50;;;;;;5048470;28;20075;-73
2022/06/13 03:02:24;;;;;;;13.10;6.75;;;16.60;79.40;;;;;;5028446;28;20034;-74
2022/06/13 03:05:17;;;;;;;17.65;6.80;;;16.60;79.30;;;;;;5045157;28;20139;-74
2022/06/13 03:08:09;;;;;;;12.23;6.55;;;16.60;79.70;;;;;;5048107;28;20029;-73
2022/06/13 03:10:42;;;;;;;13.00;6.68;;;16.60;79.90;;;;;;5048288;28;20032;-74
2022/06/13 03:13:23;;;;;;;16.35;6.57;;;16.60;79.90;;;;;;5048227;28;20077;-74
2022/06/13 03:16:02;;;;;;;14.60;6.05;;;16.60;80.00;;;;;;5047996;28;20024;-73
2022/06/13 03:18:32;;;;;;;17.48;7.40;;;16.60;80.10;;;;;;5047712;28;20135;-74
2022/06/13 03:21:07;;;;;;;13.25;6.47;;;16.50;80.20;;;;;;5044714;28;20021;-74
2022/06/13 03:23:40;;;;;;;18.60;7.60;;;16.50;80.50;;;;;;5047783;28;20084;-74
2022/06/13 03:26:29;;;;;;;13.48;7.57;;;16.50;80.50;;;;;;5044358;28;20021;-74
2022/06/13 03:29:08;;;;;;;16.80;7.22;;;16.50;80.50;;;;;;5048049;28;20021;-74
2022/06/13 03:31:49;;;;;;;18.75;7.25;;;16.50;80.70;;;;;;5048106;28;20043;-74
2022/06/13 03:34:22;;;;;;;16.63;8.10;;;16.40;81.00;;;;;;5048091;28;20021;-74
2022/06/13 03:37:10;;;;;;;17.67;8.00;;;16.40;81.20;;;;;;5048966;28;20132;-74
2022/06/13 03:39:49;;;;;;;19.17;7.63;;;16.40;81.40;;;;;;5048596;28;20524;-74
2022/06/13 03:42:26;;;;;;;14.15;7.00;;;16.40;81.50;;;;;;5038902;28;20332;-73
2022/06/13 03:45:10;;;;;;;15.52;7.00;;;16.40;81.80;;;;;;5048118;28;20025;-74
2022/06/13 03:47:57;;;;;;;17.50;7.90;;;16.40;81.80;;;;;;5041602;28;20103;-73
2022/06/13 03:50:48;;;;;;;16.40;9.07;;;16.40;81.80;;;;;;5051632;28;20056;-74
2022/06/13 03:53:34;;;;;;;17.45;8.55;;;16.40;81.80;;;;;;5050618;28;20498;-73
2022/06/13 03:56:14;;;;;;;17.48;8.55;;;16.40;81.80;;;;;;5051946;28;20032;-74
2022/06/13 03:59:04;;;;;;;17.05;8.30;;;16.40;81.80;;;;;;5051941;28;20092;-74
2022/06/13 04:01:45;;;;;;;19.48;9.05;;;16.50;81.70;;;;;;5051214;28;20048;-74
2022/06/13 04:04:23;;;;;;;21.52;9.02;;;16.50;81.60;;;;;;5032511;28;20022;-74
2022/06/13 04:06:49;;;;;;;20.30;9.00;;;16.50;81.80;;;;;;5047883;28;20426;-74
2022/06/13 04:09:17;;;;;;;21.45;10.07;;;16.50;81.60;;;;;;5051823;28;20452;-74
2022/06/13 04:11:57;;;;;;;21.15;8.55;;;16.50;81.70;;;;;;5050058;28;20144;-74
2022/06/13 04:14:37;;;;;;;20.85;9.82;;;16.50;81.70;;;;;;5051542;28;20068;-74
2022/06/13 04:17:22;;;;;;;19.92;9.05;;;16.40;81.60;;;;;;5050151;28;20764;-74
2022/06/13 04:20:14;;;;;;;17.70;9.30;;;16.50;81.70;;;;;;5030191;28;20403;-75
2022/06/13 04:22:47;;;;;;;14.07;8.18;;;16.50;81.80;;;;;;5046943;28;20091;-73
2022/06/13 04:25:25;;;;;;;17.80;8.10;;;16.50;81.90;;;;;;5039927;28;20494;-74
2022/06/13 04:28:12;;;;;;;16.13;8.93;;;16.50;82.00;;;;;;5048077;28;20021;-74
2022/06/13 04:30:41;;;;;;;16.65;7.78;;;16.50;82.10;;;;;;5041749;28;20021;-74
2022/06/13 04:33:13;;;;;;;20.98;8.35;;;16.50;82.00;;;;;;5047572;28;20092;-74
2022/06/13 04:35:41;;;;;;;19.27;9.43;;;16.50;82.20;;;;;;5039177;28;20495;-75
2022/06/13 04:38:11;;;;;;;17.65;8.93;;;16.50;82.30;;;;;;5046687;28;20091;-74
2022/06/13 04:40:43;;;;;;;19.45;9.82;;;16.50;82.40;;;;;;5041949;28;20033;-75
2022/06/13 04:43:12;;;;;;;18.77;10.43;;;16.60;82.70;;;;;;5043431;28;20096;-74
2022/06/13 04:45:52;;;;;;;17.45;9.85;;;16.60;82.60;;;;;;5033145;28;20076;-74
2022/06/13 04:48:19;;;;;;;21.35;10.05;;;16.60;82.70;;;;;;5047703;28;20094;-74
2022/06/13 04:50:56;;;;;;;19.52;10.25;;;16.60;82.80;;;;;;5049288;28;20032;-74
2022/06/13 04:53:47;;;;;;;20.83;9.13;;;16.50;82.90;;;;;;5050843;28;20395;-74
2022/06/13 04:56:13;;;;;;;19.17;9.07;;;16.50;83.30;;;;;;5032048;28;20037;-74
2022/06/13 04:58:40;;;;;;;21.08;9.85;;;16.50;83.40;;;;;;5049910;28;20596;-75
2022/06/13 05:01:14;;;;;;;21.30;9.90;;;16.50;83.40;;;;;;5049189;28;20025;-75
2022/06/13 05:03:43;;;;;;;17.42;9.48;;;16.60;83.10;;;;;;5050896;28;20033;-72
2022/06/13 05:06:24;;;;;;;19.63;9.80;;;16.60;83.30;;;;;;5049602;28;20067;-75
2022/06/13 05:09:09;;;;;;;19.30;9.18;;;16.60;83.50;;;;;;5050714;28;20037;-74
2022/06/13 05:11:44;;;;;;;13.13;4.15;;;16.60;83.40;;;;;;5029266;28;20091;-75
2022/06/13 05:14:31;;;;;;;8.95;3.05;;;16.70;78.90;;;;;;5047424;28;20033;-75
2022/06/13 05:17:31;;;;;;;4.43;2.65;;;16.70;76.90;;;;;;5050727;28;20040;-74
2022/06/13 05:20:07;;;;;;;19.27;7.88;;;16.80;76.20;;;;;;5050767;28;20039;-74
2022/06/13 05:22:47;;;;;;;33.20;10.95;;;16.90;77.00;;;;;;5050269;28;20434;-73
2022/06/13 05:25:41;;;;;;;20.60;10.13;;;16.90;81.60;;;;;;5047658;28;20039;-74
2022/06/13 05:28:08;;;;;;;23.10;9.10;;;17.00;82.00;;;;;;5049769;28;20101;-74
2022/06/13 05:30:34;;;;;;;20.95;10.13;;;17.00;81.70;;;;;;5050382;28;20036;-74
2022/06/13 05:33:00;;;;;;;23.75;9.27;;;17.10;81.90;;;;;;5050717;28;20028;-76
2022/06/13 05:35:30;;;;;;;23.95;9.32;;;17.10;82.00;;;;;;5049646;28;20056;-78
2022/06/13 05:37:58;;;;;;;22.50;9.63;;;17.10;82.00;;;;;;5050641;28;20499;-77
2022/06/13 05:40:24;;;;;;;21.25;7.97;;;17.10;81.80;;;;;;5058839;28;20025;-77
2022/06/13 05:42:50;;;;;;;20.02;9.27;;;17.20;81.90;;;;;;5046737;28;20445;-79
2022/06/13 05:45:18;;;;;;;18.83;8.43;;;17.10;81.90;;;;;;5043699;28;20052;-77
2022/06/13 05:47:46;;;;;;;23.42;9.27;;;17.20;81.80;;;;;;5035216;28;20032;-78
2022/06/13 05:50:22;;;;;;;18.73;10.07;;;17.30;81.40;;;;;;5039993;28;20032;-77
2022/06/13 05:52:48;;;;;;;14.05;7.10;;;17.30;81.40;;;;;;5039464;28;20021;-76
2022/06/13 05:55:14;;;;;;;18.30;8.38;;;17.30;81.20;;;;;;5046359;28;20034;-77
2022/06/13 05:57:40;;;;;;;18.20;8.50;;;17.30;81.10;;;;;;5040589;28;20021;-78
2022/06/13 06:00:14;;;;;;;23.73;10.07;;;17.40;80.60;;;;;;5040755;28;20044;-76
2022/06/13 06:02:40;;;;;;;21.40;9.48;;;17.40;80.40;;;;;;5038898;28;20030;-76
2022/06/13 06:05:06;;;;;;;22.75;9.02;;;17.50;80.10;;;;;;5041721;28;20051;-78
2022/06/13 06:07:32;;;;;;;20.80;8.15;;;17.60;79.80;;;;;;5037199;28;20067;-78
2022/06/13 06:09:59;;;;;;;15.77;6.88;;;17.60;79.10;;;;;;5040933;28;20028;-79
2022/06/13 06:12:25;;;;;;;21.73;8.38;;;17.70;78.60;;;;;;5038187;28;20027;-78
2022/06/13 06:14:51;;;;;;;16.50;7.18;;;17.70;77.60;;;;;;5042037;28;20021;-78
2022/06/13 06:17:17;;;;;;;20.55;7.75;;;17.80;76.90;;;;;;5042905;28;20017;-78
2022/06/13 06:19:43;;;;;;;15.93;6.07;;;17.80;76.80;;;;;;5036547;28;20051;-79
2022/06/13 06:22:12;;;;;;;16.27;5.88;;;18.00;75.90;;;;;;5049653;28;20033;-78
2022/06/13 06:24:38;;;;;;;15.10;5.53;;;18.10;73.60;;;;;;5052046;28;20056;-78
2022/06/13 06:27:04;;;;;;;13.25;5.05;;;18.20;73.30;;;;;;5048520;28;20083;-79
2022/06/13 06:29:29;;;;;;;14.65;5.78;;;18.20;71.50;;;;;;5043251;28;20037;-80
2022/06/13 06:31:55;;;;;;;10.25;4.15;;;18.30;71.50;;;;;;5043267;28;20029;-77
2022/06/13 06:34:21;;;;;;;13.00;4.38;;;18.30;71.50;;;;;;5050554;28;20128;-80
2022/06/13 06:36:46;;;;;;;14.88;4.65;;;18.40;70.50;;;;;;5049233;28;20439;-78
2022/06/13 06:39:12;;;;;;;14.10;4.60;;;18.40;68.60;;;;;;5049494;28;20071;-78
2022/06/13 06:41:37;;;;;;;16.58;4.10;;;18.30;68.50;;;;;;5045634;28;20445;-78
2022/06/13 06:44:03;;;;;;;13.75;3.70;;;18.40;68.70;;;;;;5038615;28;20090;-79
2022/06/13 06:46:29;;;;;;;12.75;4.40;;;18.50;68.90;;;;;;5041769;28;20534;-80
2022/06/13 06:48:55;;;;;;;10.48;3.78;;;18.60;68.80;;;;;;5049378;28;20025;-79
2022/06/13 06:51:21;;;;;;;11.98;3.85;;;18.70;68.30;;;;;;5039505;28;20036;-77
2022/06/13 07:02:00;;;;;;;12.05;4.00;;;19.10;67.00;;;;;;5054025;28;20040;-76
2022/06/13 07:04:26;;;;;;;10.70;4.13;;;19.30;67.40;;;;;;5050694;28;20028;-76
2022/06/13 07:06:51;;;;;;;12.90;3.85;;;19.50;66.00;;;;;;5048630;28;20024;-75
2022/06/13 07:09:17;;;;;;;12.65;4.22;;;19.50;64.70;;;;;;5047109;28;20368;-76
2022/06/13 07:11:55;;;;;;;11.07;3.30;;;19.60;64.60;;;;;;5057570;28;20017;-76
2022/06/13 07:14:29;;;;;;;9.43;3.33;;;19.70;64.80;;;;;;5061822;28;20474;-75
2022/06/13 07:16:57;;;;;;;12.75;3.90;;;19.70;64.10;;;;;;5059310;28;20484;-76
2022/06/13 07:19:24;;;;;;;11.52;3.35;;;19.70;63.80;;;;;;5051167;28;20036;-76
2022/06/13 07:21:49;;;;;;;12.07;4.07;;;19.60;63.40;;;;;;5051241;28;20025;-76
2022/06/13 07:24:15;;;;;;;10.18;3.33;;;19.60;62.60;;;;;;5052521;28;20074;-77
2022/06/13 07:26:42;;;;;;;12.13;3.63;;;19.60;62.70;;;;;;5061300;28;20032;-77
2022/06/13 07:29:08;;;;;;;11.40;2.80;;;19.50;62.60;;;;;;5045903;28;20025;-76
2022/06/13 07:31:39;;;;;;;10.07;3.05;;;19.50;63.10;;;;;;5060222;28;20036;-74
2022/06/13 07:34:06;;;;;;;10.02;2.70;;;19.60;63.70;;;;;;5053730;28;20087;-75
2022/06/13 07:36:32;;;;;;;11.80;3.40;;;19.70;62.60;;;;;;5052212;28;20047;-77
2022/06/13 07:38:58;;;;;;;8.07;2.10;;;19.60;61.60;;;;;;5051966;28;20025;-76
2022/06/13 07:41:25;;;;;;;9.60;3.63;;;19.60;61.60;;;;;;5047703;28;20054;-76
2022/06/13 07:43:54;;;;;;;10.40;2.95;;;19.90;62.30;;;;;;5049410;28;20055;-75
2022/06/13 07:46:25;;;;;;;9.18;2.63;;;20.10;60.40;;;;;;5045716;28;20905;-75
2022/06/13 07:48:51;;;;;;;5.75;1.90;;;20.10;59.10;;;;;;5047624;28;20383;-75
2022/06/13 07:51:17;;;;;;;8.85;2.35;;;20.10;58.30;;;;;;5047512;28;20017;-76
2022/06/13 07:53:43;;;;;;;7.93;2.08;;;20.20;58.80;;;;;;5050617;28;20626;-76
2022/06/13 07:56:14;;;;;;;7.57;1.67;;;20.40;58.60;;;;;;5047273;28;20468;-74
2022/06/13 07:58:42;;;;;;;8.05;2.05;;;20.50;58.10;;;;;;5047004;28;20355;-73
2022/06/13 08:01:10;;;;;;;7.78;1.58;;;20.60;57.00;;;;;;5047393;28;20442;-76
2022/06/13 08:03:36;;;;;;;4.57;1.60;;;20.60;57.40;;;;;;5047512;28;20021;-75
2022/06/13 08:06:04;;;;;;;7.18;1.73;;;20.60;54.90;;;;;;5056228;28;20048;-74
2022/06/13 08:08:30;;;;;;;7.40;1.67;;;20.60;56.30;;;;;;5054943;28;20029;-77
2022/06/13 08:10:59;;;;;;;5.00;1.20;;;20.60;56.20;;;;;;5047614;28;20021;-75
2022/06/13 08:13:25;;;;;;;5.95;1.92;;;20.50;56.30;;;;;;5047215;28;20559;-75
2022/06/13 08:15:51;;;;;;;6.63;1.60;;;20.40;58.70;;;;;;5046735;28;20017;-75
2022/06/13 08:18:18;;;;;;;5.43;1.20;;;20.40;57.60;;;;;;5036139;28;20117;-74
2022/06/13 08:20:44;;;;;;;6.50;1.35;;;20.50;57.00;;;;;;5045988;28;20039;-74
2022/06/13 08:23:15;;;;;;;4.55;1.50;;;20.60;58.40;;;;;;5047760;28;20021;-76
2022/06/13 08:25:42;;;;;;;7.68;1.50;;;20.60;57.10;;;;;;5048441;28;20045;-75
2022/06/13 08:28:10;;;;;;;7.55;1.55;;;20.40;57.80;;;;;;5048791;28;20029;-74
2022/06/13 08:30:56;;;;;;;12.65;2.15;;;20.30;57.80;;;;;;5048651;28;20053;-74
2022/06/13 08:33:22;;;;;;;5.45;1.35;;;20.40;58.10;;;;;;5027651;28;20068;-75
2022/06/13 08:35:49;;;;;;;5.93;1.60;;;20.50;58.10;;;;;;5046427;28;20053;-74
2022/06/13 08:38:14;;;;;;;4.35;1.10;;;20.80;55.40;;;;;;5050087;28;20025;-75
2022/06/13 08:41:14;;;;;;;3.75;0.85;;;21.20;54.70;;;;;;5050488;28;20557;-75
2022/06/13 08:44:08;;;;;;;7.28;1.17;;;21.50;53.00;;;;;;5028561;28;20041;-75
2022/06/13 08:46:33;;;;;;;6.70;1.40;;;21.40;55.80;;;;;;5042206;28;20033;-75
2022/06/13 08:49:20;;;;;;;6.85;1.55;;;21.20;54.70;;;;;;5050857;28;20036;-75
2022/06/13 08:51:49;;;;;;;6.13;1.00;;;21.00;56.30;;;;;;5050815;28;20071;-75
2022/06/13 08:54:24;;;;;;;5.32;1.15;;;20.80;58.40;;;;;;5045914;28;20108;-75
2022/06/13 08:56:52;;;;;;;4.85;1.10;;;20.70;60.50;;;;;;5050237;28;20032;-75
2022/06/13 08:59:39;;;;;;;4.00;1.50;;;20.80;59.00;;;;;;5041386;28;20112;-75
2022/06/13 09:02:08;;;;;;;6.75;1.85;;;21.00;57.60;;;;;;5049689;28;20017;-75
2022/06/13 09:04:40;;;;;;;6.38;1.30;;;21.30;58.10;;;;;;5043182;28;20796;-74
2022/06/13 09:07:13;;;;;;;9.70;1.40;;;21.50;56.70;;;;;;5047157;28;20040;-75
2022/06/13 09:09:53;;;;;;;5.78;1.45;;;21.60;54.60;;;;;;5048971;28;20028;-75
2022/06/13 09:12:28;;;;;;;8.43;1.40;;;21.50;53.30;;;;;;5048657;28;20140;-74
2022/06/13 09:15:03;;;;;;;6.20;1.58;;;21.50;53.90;;;;;;5050867;28;20021;-73
2022/06/13 09:17:50;;;;;;;3.92;1.10;;;21.30;51.90;;;;;;5048707;28;20025;-75
2022/06/13 09:20:32;;;;;;;7.97;1.67;;;21.20;51.10;;;;;;5049081;28;20041;-75
2022/06/13 09:23:16;;;;;;;7.35;1.20;;;21.40;50.60;;;;;;5045815;28;20013;-75
2022/06/13 09:26:08;;;;;;;5.82;1.02;;;21.50;50.80;;;;;;5047928;28;20111;-74
2022/06/13 09:29:11;;;;;;;7.82;1.45;;;21.70;53.20;;;;;;5047235;28;20056;-76
2022/06/13 09:31:43;;;;;;;7.55;1.85;;;21.80;54.20;;;;;;5047763;28;20021;-74
2022/06/13 09:34:40;;;;;;;7.65;1.92;;;22.00;52.90;;;;;;5048472;28;20020;-75
2022/06/13 09:37:27;;;;;;;7.45;2.67;;;22.30;53.00;;;;;;5048449;28;20068;-76
2022/06/13 09:39:54;;;;;;;6.40;1.75;;;22.40;53.30;;;;;;5047428;28;20431;-75
2022/06/13 09:42:48;;;;;;;5.75;1.23;;;22.30;51.60;;;;;;5049838;28;20053;-76
2022/06/13 09:45:56;;;;;;;8.25;1.10;;;22.20;50.30;;;;;;5049587;28;20056;-75
2022/06/13 09:48:47;;;;;;;4.90;0.90;;;21.90;50.80;;;;;;5004786;28;20045;-75
2022/06/13 09:51:31;;;;;;;6.88;1.27;;;21.30;50.50;;;;;;5049959;28;20081;-76
2022/06/13 09:54:19;;;;;;;6.97;1.75;;;21.10;52.50;;;;;;5048211;28;20021;-75
2022/06/13 09:56:57;;;;;;;7.50;1.35;;;21.20;53.40;;;;;;5049219;28;20120;-74
2022/06/13 09:59:40;;;;;;;8.65;2.10;;;21.40;53.00;;;;;;5046881;28;20079;-75
2022/06/13 10:02:25;;;;;;;7.25;1.38;;;21.60;51.20;;;;;;5049613;28;20510;-76
2022/06/13 10:05:26;;;;;;;6.78;1.67;;;21.80;50.30;;;;;;5049510;28;20100;-74
2022/06/13 10:08:16;;;;;;;6.43;1.35;;;22.00;49.70;;;;;;5048153;28;20383;-76
2022/06/13 10:11:07;;;;;;;8.35;1.25;;;22.30;50.20;;;;;;5049709;28;20456;-75
2022/06/13 10:13:46;;;;;;;5.82;1.13;;;22.20;48.00;;;;;;5049738;28;20029;-75
2022/06/13 10:16:47;;;;;;;7.30;1.42;;;21.90;48.30;;;;;;5049971;28;20071;-74
2022/06/13 10:19:20;;;;;;;5.97;1.55;;;21.60;49.60;;;;;;5049153;28;20102;-75
2022/06/13 10:22:04;;;;;;;7.65;1.55;;;21.50;51.80;;;;;;5029592;28;20068;-76
2022/06/13 10:24:42;;;;;;;5.05;1.20;;;21.60;51.00;;;;;;5046310;28;20075;-75
2022/06/13 10:27:33;;;;;;;5.57;1.50;;;21.70;51.70;;;;;;5049120;28;20033;-75
2022/06/13 10:30:17;;;;;;;9.15;1.65;;;21.60;50.70;;;;;;5039662;28;20456;-75
2022/06/13 10:33:21;;;;;;;8.88;1.27;;;21.40;50.90;;;;;;5049324;28;20025;-75
2022/06/13 10:36:08;;;;;;;4.57;1.08;;;21.30;51.40;;;;;;5047342;28;20048;-74
2022/06/13 10:38:57;;;;;;;7.80;1.42;;;21.10;53.20;;;;;;5048889;28;20025;-75
2022/06/13 10:41:26;;;;;;;2.97;0.80;;;20.90;52.20;;;;;;5027671;28;20025;-75
2022/06/13 10:43:54;;;;;;;5.57;1.27;;;21.20;56.10;;;;;;5034716;28;20024;-74
2022/06/13 10:46:20;;;;;;;6.30;1.20;;;21.60;52.50;;;;;;5048821;28;20036;-76
2022/06/13 10:49:00;;;;;;;3.90;0.90;;;21.90;48.50;;;;;;5047539;28;20009;-75
2022/06/13 10:51:26;;;;;;;4.68;0.85;;;22.20;48.70;;;;;;5037569;28;20048;-75
2022/06/13 10:54:09;;;;;;;6.82;1.35;;;22.30;48.40;;;;;;5049006;28;20052;-74
2022/06/13 10:56:46;;;;;;;3.30;1.00;;;22.20;50.20;;;;;;5049465;28;20029;-76
2022/06/13 10:59:30;;;;;;;4.35;0.90;;;22.00;49.10;;;;;;5048654;28;20106;-75
2022/06/13 11:02:05;;;;;;;5.30;1.00;;;21.70;49.50;;;;;;5038843;28;20442;-75
2022/06/13 11:04:37;;;;;;;5.00;1.02;;;21.80;51.90;;;;;;5048471;28;20024;-76
2022/06/13 11:07:17;;;;;;;5.13;1.20;;;22.10;51.00;;;;;;5038028;28;20033;-75
2022/06/13 11:09:59;;;;;;;6.47;1.25;;;22.30;48.00;;;;;;5048017;28;20021;-75
2022/06/13 11:12:33;;;;;;;5.82;1.13;;;22.50;48.20;;;;;;5048201;28;20029;-76
2022/06/13 11:23:49;;;;;;;;;;;22.00;49.50;;;;;;5048677;28;20040;-75
2022/06/13 11:29:03;;;;;;;6.43;1.20;;;22.00;49.20;;;;;;5016722;28;20049;-74
2022/06/13 11:31:29;;;;;;;4.30;0.98;;;22.20;50.10;;;;;;5042306;28;20025;-75
2022/06/13 11:33:55;;;;;;;5.57;1.17;;;22.30;50.80;;;;;;5048335;28;20052;-75
2022/06/13 11:36:26;;;;;;;6.60;0.90;;;22.30;49.50;;;;;;5047404;28;20064;-75
2022/06/13 11:38:59;;;;;;;6.22;1.15;;;22.20;47.70;;;;;;5048064;28;20515;-75
2022/06/13 11:41:35;;;;;;;4.47;0.90;;;22.10;46.50;;;;;;5046689;28;20024;-75
2022/06/13 11:44:05;;;;;;;5.70;0.82;;;22.00;47.20;;;;;;5048153;28;20025;-75
2022/06/13 11:46:45;;;;;;;3.63;0.90;;;22.10;45.80;;;;;;5047896;28;20108;-75
2022/06/13 11:49:16;;;;;;;4.00;1.00;;;22.30;45.60;;;;;;5047896;28;20515;-75
2022/06/13 11:51:56;;;;;;;4.70;1.05;;;22.70;45.40;;;;;;5047396;28;20390;-75
2022/06/13 11:54:25;;;;;;;4.95;0.85;;;23.20;46.60;;;;;;5047901;28;20024;-75
2022/06/13 11:57:12;;;;;;;5.87;1.13;;;23.20;45.50;;;;;;5047797;28;20426;-76
2022/06/13 11:59:49;;;;;;;4.85;1.00;;;23.00;44.50;;;;;;5046651;28;20385;-75
2022/06/13 12:02:23;;;;;;;6.65;0.98;;;22.60;44.00;;;;;;5047810;28;20475;-74
2022/06/13 12:04:53;;;;;;;3.70;0.73;;;22.50;45.60;;;;;;5047412;28;20065;-75
2022/06/13 12:07:28;;;;;;;6.80;1.33;;;22.70;45.30;;;;;;5046004;28;20053;-74
2022/06/13 12:09:57;;;;;;;3.78;0.70;;;23.00;46.80;;;;;;5049884;28;20093;-75
2022/06/13 12:12:25;;;;;;;3.22;0.80;;;23.20;45.90;;;;;;5051843;28;20099;-75
2022/06/13 12:14:51;;;;;;;8.13;1.20;;;23.50;46.40;;;;;;5051627;28;20029;-74
2022/06/13 12:17:45;;;;;;;2.63;0.70;;;23.90;44.80;;;;;;5051698;28;20109;-75
2022/06/13 12:20:24;;;;;;;4.38;1.20;;;24.10;45.40;;;;;;5013601;28;20180;-75
2022/06/13 12:23:11;;;;;;;2.25;0.60;;;24.10;39.90;;;;;;5051364;28;20075;-74
2022/06/13 12:26:01;;;;;;;4.35;0.95;;;23.80;41.50;;;;;;5051589;28;20021;-74
2022/06/13 12:28:40;;;;;;;3.95;0.80;;;23.70;39.80;;;;;;5051142;28;20021;-74
2022/06/13 12:31:09;;;;;;;4.78;1.25;;;23.80;39.30;;;;;;5031494;28;20128;-73
2022/06/13 12:34:03;;;;;;;4.18;0.80;;;23.80;39.90;;;;;;5046377;28;20074;-74
2022/06/13 12:36:34;;;;;;;4.95;0.73;;;23.90;42.80;;;;;;5032147;28;20054;-74
2022/06/13 12:39:39;;;;;;;3.58;0.68;;;23.90;46.20;;;;;;5048294;28;20299;-75
2022/06/13 12:42:39;;;;;;;4.03;0.80;;;24.10;48.00;;;;;;5032009;28;20040;-76
2022/06/13 12:45:44;;;;;;;4.10;0.93;;;24.10;43.50;;;;;;5050452;28;20100;-74
2022/06/13 12:48:29;;;;;;;7.63;0.95;;;24.10;43.30;;;;;;5051611;28;20032;-75
2022/06/13 12:51:15;;;;;;;5.10;0.90;;;24.40;43.90;;;;;;5051385;28;20033;-73
2022/06/13 12:53:41;;;;;;;3.78;1.00;;;24.70;41.20;;;;;;5051858;28;20602;-75
2022/06/13 12:56:30;;;;;;;5.47;0.98;;;24.70;41.60;;;;;;5051028;28;20039;-74
2022/06/13 12:59:07;;;;;;;4.25;1.08;;;24.50;42.70;;;;;;5051868;28;20055;-75
2022/06/13 13:01:44;;;;;;;6.05;0.98;;;24.30;43.20;;;;;;5051280;28;20025;-76
2022/06/13 13:04:25;;;;;;;5.38;1.05;;;24.10;43.70;;;;;;5051467;28;20086;-74
2022/06/13 13:07:04;;;;;;;4.45;1.05;;;24.20;43.20;;;;;;5052477;28;20033;-74
2022/06/13 13:09:56;;;;;;;6.82;0.80;;;24.20;41.70;;;;;;5050563;28;20021;-75
2022/06/13 13:12:44;;;;;;;7.53;1.10;;;24.40;45.60;;;;;;5049969;28;20048;-75
2022/06/13 13:15:17;;;;;;;8.30;1.33;;;24.70;44.20;;;;;;5050948;28;20410;-75
2022/06/13 13:18:16;;;;;;;6.30;1.58;;;24.70;41.60;;;;;;5050052;28;20070;-75
2022/06/13 13:20:57;;;;;;;7.60;1.40;;;24.70;41.80;;;;;;5050445;28;20044;-75
2022/06/13 13:23:47;;;;;;;5.57;1.20;;;24.60;41.30;;;;;;5052913;28;20020;-74
2022/06/13 13:26:25;;;;;;;7.82;1.63;;;24.40;44.00;;;;;;5051687;28;20766;-75
2022/06/13 13:29:12;;;;;;;5.15;1.40;;;24.00;41.90;;;;;;5055296;28;20195;-75
2022/06/13 13:31:46;;;;;;;5.80;1.55;;;23.70;47.00;;;;;;5049449;28;20025;-75
2022/06/13 13:34:44;;;;;;;2.97;0.88;;;23.50;43.30;;;;;;5049694;28;20021;-75
2022/06/13 13:37:27;;;;;;;5.75;1.45;;;23.40;45.90;;;;;;5048832;28;20072;-74
2022/06/13 13:40:16;;;;;;;10.30;1.17;;;23.60;46.20;;;;;;5052121;28;20017;-75
2022/06/13 13:43:05;;;;;;;8.65;1.20;;;23.80;48.00;;;;;;5051081;28;20021;-75
2022/06/13 13:45:42;;;;;;;5.60;1.20;;;23.40;44.30;;;;;;5050549;28;20527;-76
2022/06/13 13:48:24;;;;;;;7.95;1.20;;;23.00;43.00;;;;;;5049442;28;20071;-76
2022/06/13 13:51:07;;;;;;;3.85;0.85;;;22.90;46.00;;;;;;5052028;28;20483;-76